Time;durP1;ratioP1;P1;durP2;ratioP2;P2;SDS_P1;SDS_P2;PMS_P1;PMS_P2;Temp;Humidity;BMP_temperature;BMP_pressure;BME280_temperature;BME280_humidity;BME280_pressure;Samples;Min_cycle;Max_cycle;Signal;HPM_P1;HPM_P2
2021/12/17 00:07:10;;;;;;;13.77;9.73;;;9.00;74.20;;;;;;5014290;28;20100;-67
2021/12/17 00:09:38;;;;;;;12.80;8.90;;;8.90;74.10;;;;;;5014203;28;20022;-68
2021/12/17 00:12:09;;;;;;;14.90;8.70;;;9.00;74.40;;;;;;5014278;28;20050;-67
2021/12/17 00:14:37;;;;;;;14.10;9.45;;;8.90;74.60;;;;;;5014069;28;20033;-76
2021/12/17 00:17:07;;;;;;;12.40;8.98;;;9.00;74.60;;;;;;5013883;28;20026;-72
2021/12/17 00:46:36;;;;;;;15.70;9.82;;;8.60;75.40;;;;;;5013755;28;20045;-73
2021/12/17 00:49:32;;;;;;;19.13;11.07;;;8.50;75.80;;;;;;5013614;28;20100;-73
2021/12/17 00:52:00;;;;;;;16.88;10.40;;;8.50;75.70;;;;;;5013622;28;20018;-73
2021/12/17 00:54:40;;;;;;;19.38;11.25;;;8.50;76.00;;;;;;5013219;28;20061;-73
2021/12/17 00:57:15;;;;;;;22.63;11.27;;;8.50;76.30;;;;;;5013644;28;20033;-73
2021/12/17 00:59:44;;;;;;;21.30;11.85;;;8.40;76.20;;;;;;4995933;28;20053;-74
2021/12/17 01:02:14;;;;;;;20.15;12.02;;;8.40;76.80;;;;;;5013371;28;20026;-72
2021/12/17 01:04:49;;;;;;;21.88;12.23;;;8.40;76.60;;;;;;5013135;28;20422;-71
2021/12/17 01:07:16;;;;;;;21.48;12.68;;;8.40;77.20;;;;;;5013276;28;20156;-72
2021/12/17 01:09:45;;;;;;;19.80;13.00;;;8.40;76.90;;;;;;5013200;28;20026;-73
2021/12/17 01:12:11;;;;;;;21.08;12.43;;;8.40;76.80;;;;;;5013311;28;20487;-74
2021/12/17 01:14:37;;;;;;;20.23;12.55;;;8.30;76.90;;;;;;5013193;28;20033;-75
2021/12/17 01:17:04;;;;;;;19.10;13.25;;;8.30;77.40;;;;;;5013142;28;20030;-72
2021/12/17 01:25:06;;;;;;;19.23;13.05;;;8.20;77.50;;;;;;5013270;28;20526;-73
2021/12/17 01:35:45;;;;;;;21.73;13.48;;;8.10;78.30;;;;;;5013454;28;20041;-73
2021/12/17 01:43:37;;;;;;;19.83;15.20;;;8.00;79.00;;;;;;5013278;28;20037;-73
2021/12/17 01:46:05;;;;;;;26.95;15.98;;;8.00;79.00;;;;;;5012926;28;20037;-74
2021/12/17 01:48:48;;;;;;;26.05;15.82;;;8.00;80.00;;;;;;5012568;28;20080;-74
2021/12/17 01:59:20;;;;;;;;;;;7.80;79.80;;;;;;5013952;28;20387;-67
2021/12/17 01:59:43;;;;;;;22.25;15.30;;;7.80;81.10;;;;;;5012388;28;19905;-66
2021/12/17 02:02:10;;;;;;;22.65;14.85;;;7.80;80.20;;;;;;5013106;28;20022;-66
2021/12/17 02:04:37;;;;;;;21.70;14.15;;;7.80;80.20;;;;;;5016627;28;20030;-66
2021/12/17 02:07:04;;;;;;;23.77;15.80;;;7.70;80.50;;;;;;5016480;28;20108;-67
2021/12/17 02:20:22;;;;;;;;;;;7.80;80.10;;;;;;5017143;28;20643;-67
2021/12/17 02:23:20;;;;;;;23.98;13.52;;;7.70;81.20;;;;;;5016395;28;19911;-67
2021/12/17 02:28:45;;;;;;;20.63;12.10;;;7.60;79.80;;;;;;5016416;28;20064;-67
2021/12/17 02:31:26;;;;;;;18.88;12.38;;;7.60;80.60;;;;;;5016623;28;20041;-66
2021/12/17 02:33:54;;;;;;;17.45;12.48;;;7.50;80.40;;;;;;5016254;28;20467;-67
2021/12/17 02:36:24;;;;;;;21.55;12.32;;;7.60;81.30;;;;;;5016054;28;20140;-66
2021/12/17 02:38:53;;;;;;;18.88;11.52;;;7.60;80.70;;;;;;4998970;28;20075;-68
2021/12/17 02:46:46;;;;;;;;;;;7.60;80.50;;;;;;5016946;28;20104;-69
2021/12/17 02:49:12;;;;;;;15.02;10.32;;;7.60;82.10;;;;;;5015880;28;19905;-68
2021/12/17 02:51:40;;;;;;;16.73;11.27;;;7.60;81.10;;;;;;5015996;28;20057;-66
2021/12/17 02:54:06;;;;;;;17.75;11.25;;;7.60;81.50;;;;;;5015792;28;20487;-69
2021/12/17 02:56:32;;;;;;;15.90;10.43;;;7.60;80.90;;;;;;5015983;28;20502;-66
2021/12/17 02:58:58;;;;;;;17.83;10.93;;;7.50;80.80;;;;;;5016044;28;20101;-67
2021/12/17 03:01:24;;;;;;;14.63;10.30;;;7.40;81.00;;;;;;5015710;28;20483;-68
2021/12/17 03:03:53;;;;;;;14.73;9.80;;;7.40;81.20;;;;;;5015739;28;20018;-68
2021/12/17 03:06:20;;;;;;;19.25;10.07;;;7.40;81.80;;;;;;5016080;28;20037;-67
2021/12/17 03:08:47;;;;;;;16.75;10.50;;;7.30;81.30;;;;;;5015711;28;20045;-67
2021/12/17 03:11:15;;;;;;;14.52;9.82;;;7.30;81.70;;;;;;5015632;28;20034;-67
2021/12/17 03:13:43;;;;;;;15.10;10.13;;;7.40;82.30;;;;;;5014612;28;20102;-68
2021/12/17 03:16:26;;;;;;;18.35;10.35;;;7.40;81.70;;;;;;5015173;28;20054;-67
2021/12/17 03:24:02;;;;;;;15.70;9.88;;;7.50;81.00;;;;;;5015913;28;20415;-67
2021/12/17 03:26:29;;;;;;;14.18;10.00;;;7.60;81.50;;;;;;5015077;28;20030;-67
2021/12/17 03:28:57;;;;;;;18.50;10.05;;;7.70;81.60;;;;;;5015399;28;20026;-66
2021/12/17 03:31:24;;;;;;;14.55;9.27;;;7.70;81.40;;;;;;4997676;28;20483;-68
2021/12/17 03:33:56;;;;;;;17.40;9.68;;;7.70;81.20;;;;;;5015178;28;20080;-67
2021/12/17 03:36:22;;;;;;;15.50;9.18;;;7.80;81.00;;;;;;5015205;28;20026;-67
2021/12/17 03:38:50;;;;;;;16.88;8.95;;;7.80;80.90;;;;;;5014985;28;20368;-66
2021/12/17 03:41:21;;;;;;;12.57;8.45;;;7.70;81.10;;;;;;5015246;28;20033;-66
2021/12/17 03:43:49;;;;;;;14.93;9.02;;;7.70;80.70;;;;;;5015157;28;20360;-67
2021/12/17 03:46:15;;;;;;;12.98;8.32;;;7.70;80.90;;;;;;4997555;28;20046;-65
2021/12/17 03:48:42;;;;;;;12.60;7.57;;;7.80;81.30;;;;;;5014888;28;20092;-69
2021/12/17 03:51:14;;;;;;;11.02;7.18;;;7.70;80.70;;;;;;5014727;28;20038;-67
2021/12/17 03:53:42;;;;;;;12.70;7.53;;;7.70;80.90;;;;;;5014749;28;20034;-67
2021/12/17 03:56:09;;;;;;;11.52;7.15;;;7.70;81.10;;;;;;5015038;28;20099;-67
2021/12/17 03:58:35;;;;;;;12.90;7.03;;;7.60;81.00;;;;;;5014768;28;20026;-67
2021/12/17 04:01:01;;;;;;;10.68;6.53;;;7.60;80.90;;;;;;5014730;28;20037;-65
2021/12/17 04:03:26;;;;;;;15.65;7.03;;;7.60;81.00;;;;;;4996881;28;20030;-66
2021/12/17 04:05:52;;;;;;;13.70;6.55;;;7.50;80.90;;;;;;5014618;28;20074;-66
2021/12/17 04:08:18;;;;;;;12.95;6.43;;;7.60;81.00;;;;;;5014589;28;20104;-67
2021/12/17 04:10:48;;;;;;;11.88;6.20;;;7.60;80.90;;;;;;5014566;28;20401;-66
2021/12/17 04:13:37;;;;;;;13.10;6.30;;;7.60;81.20;;;;;;5014541;28;20037;-67
2021/12/17 04:16:07;;;;;;;10.27;5.90;;;7.60;81.00;;;;;;5013806;28;20038;-66
2021/12/17 04:18:37;;;;;;;10.27;6.07;;;7.60;80.90;;;;;;5014124;28;20022;-66
2021/12/17 04:21:05;;;;;;;12.43;6.10;;;7.60;80.90;;;;;;5014423;28;20056;-66
2021/12/17 04:23:33;;;;;;;10.23;5.93;;;7.50;81.20;;;;;;5014537;28;20149;-66
2021/12/17 04:25:59;;;;;;;11.18;6.38;;;7.50;80.40;;;;;;5013756;28;20025;-66
2021/12/17 04:28:26;;;;;;;11.40;6.03;;;7.50;81.10;;;;;;5014109;28;20376;-67
2021/12/17 04:30:52;;;;;;;9.82;5.70;;;7.50;81.20;;;;;;5014329;28;20072;-67
2021/12/17 04:33:18;;;;;;;10.43;6.13;;;7.50;81.00;;;;;;5014162;28;20430;-66
2021/12/17 04:35:45;;;;;;;10.95;6.13;;;7.60;80.80;;;;;;5014411;28;20375;-67
2021/12/17 04:38:13;;;;;;;10.35;6.35;;;7.60;81.20;;;;;;5013780;28;20030;-66
2021/12/17 04:40:42;;;;;;;11.05;5.78;;;7.50;81.00;;;;;;5013975;28;20025;-67
2021/12/17 04:43:16;;;;;;;11.63;5.47;;;7.60;81.00;;;;;;5013795;28;20028;-67
2021/12/17 04:45:51;;;;;;;9.15;5.88;;;7.60;81.10;;;;;;5013759;28;20038;-67
2021/12/17 04:59:13;;;;;;;9.02;4.93;;;7.80;80.10;;;;;;5013898;28;20053;-67
2021/12/17 05:01:39;;;;;;;10.52;5.88;;;7.80;80.40;;;;;;4995935;28;20025;-67
2021/12/17 05:04:04;;;;;;;8.55;5.28;;;7.80;80.00;;;;;;5013669;28;20547;-66
2021/12/17 05:06:31;;;;;;;10.65;5.32;;;7.80;80.00;;;;;;5013451;28;20438;-67
2021/12/17 05:09:08;;;;;;;8.85;5.22;;;7.80;80.20;;;;;;5013685;28;20101;-69
2021/12/17 05:18:14;;;;;;;9.75;5.78;;;7.90;80.30;;;;;;5013660;28;20028;-68
2021/12/17 05:19:53;;;;;;;;;;;7.90;79.30;;;;;;5013873;28;20033;-67
2021/12/17 05:22:19;;;;;;;9.23;6.53;;;7.90;79.90;;;;;;5013717;28;20310;-67
2021/12/17 05:24:45;;;;;;;8.88;5.30;;;7.80;79.90;;;;;;5013396;28;20076;-67
2021/12/17 05:27:11;;;;;;;9.10;4.97;;;7.90;80.00;;;;;;5013207;28;20061;-67
2021/12/17 05:29:37;;;;;;;9.65;5.55;;;7.90;79.90;;;;;;5013260;28;20415;-67
2021/12/17 05:32:04;;;;;;;8.40;5.00;;;7.90;79.60;;;;;;5013662;28;20033;-67
2021/12/17 05:34:29;;;;;;;16.45;5.60;;;8.00;79.30;;;;;;4996816;28;20023;-67
2021/12/17 05:36:55;;;;;;;10.40;5.35;;;8.00;79.20;;;;;;4993159;28;20038;-67
2021/12/17 05:39:21;;;;;;;9.63;4.85;;;8.00;79.00;;;;;;4998761;28;20376;-66
2021/12/17 05:41:47;;;;;;;10.27;5.03;;;8.00;79.20;;;;;;4997274;28;20431;-67
2021/12/17 05:44:15;;;;;;;9.68;5.63;;;8.00;79.10;;;;;;4997214;28;20040;-66
2021/12/17 05:46:50;;;;;;;9.05;5.18;;;7.90;79.10;;;;;;4999872;28;20092;-68
2021/12/17 05:49:24;;;;;;;10.02;5.25;;;7.90;78.30;;;;;;4996985;28;20439;-68
2021/12/17 05:51:51;;;;;;;9.93;5.10;;;8.00;79.30;;;;;;4997316;28;20351;-66
2021/12/17 05:54:18;;;;;;;10.63;5.30;;;8.00;79.30;;;;;;4997127;28;20057;-68
2021/12/17 05:56:44;;;;;;;8.38;4.65;;;8.00;79.00;;;;;;4996987;28;20148;-68
2021/12/17 05:59:10;;;;;;;8.38;4.72;;;8.10;78.80;;;;;;4996853;28;20026;-67
2021/12/17 06:01:36;;;;;;;9.70;5.65;;;8.10;79.10;;;;;;4996820;28;20411;-67
2021/12/17 06:04:03;;;;;;;9.07;5.35;;;8.20;78.80;;;;;;4996867;28;20026;-68
2021/12/17 06:06:32;;;;;;;7.70;5.22;;;8.20;78.70;;;;;;4996806;28;20495;-67
2021/12/17 06:09:01;;;;;;;9.07;5.38;;;8.20;78.30;;;;;;4996793;28;20023;-68
2021/12/17 06:11:27;;;;;;;10.27;5.28;;;8.20;78.10;;;;;;4996838;28;20492;-67
2021/12/17 06:13:53;;;;;;;9.13;5.13;;;8.30;78.10;;;;;;4996749;28;20448;-67
2021/12/17 06:16:18;;;;;;;9.80;4.68;;;8.30;77.80;;;;;;4996579;28;20026;-67
2021/12/17 06:18:44;;;;;;;8.20;4.85;;;8.30;77.60;;;;;;4996350;28;20030;-66
2021/12/17 06:21:10;;;;;;;10.82;5.30;;;8.30;77.40;;;;;;4996502;28;20038;-67
2021/12/17 06:23:37;;;;;;;9.25;5.13;;;8.30;77.60;;;;;;4996584;28;20026;-68
2021/12/17 06:26:04;;;;;;;10.63;4.93;;;8.30;77.40;;;;;;4978919;28;20435;-67
2021/12/17 06:28:30;;;;;;;11.32;5.10;;;8.40;77.50;;;;;;4996355;28;20044;-66
2021/12/17 06:30:56;;;;;;;8.18;4.90;;;8.50;77.40;;;;;;4996336;28;20093;-68
2021/12/17 06:33:22;;;;;;;7.45;5.00;;;8.50;76.70;;;;;;4996423;28;20109;-67
2021/12/17 06:35:47;;;;;;;12.75;5.90;;;8.50;76.50;;;;;;4996395;28;20383;-67
2021/12/17 06:38:13;;;;;;;10.13;5.00;;;8.50;76.60;;;;;;4996060;28;20130;-66
2021/12/17 06:40:39;;;;;;;14.02;5.50;;;8.50;76.50;;;;;;4996084;28;20441;-67
2021/12/17 06:43:05;;;;;;;10.10;5.00;;;8.50;76.30;;;;;;4981404;28;20034;-67
2021/12/17 06:45:57;;;;;;;9.93;5.07;;;8.50;76.10;;;;;;5006029;28;20037;-67
2021/12/17 06:48:21;;;;;;;8.80;4.85;;;8.50;75.90;;;;;;5007629;28;20056;-66
2021/12/17 07:17:34;;;;;;;;;;;8.90;73.60;;;;;;5006223;28;20061;-65
2021/12/17 07:33:40;;;;;;;10.45;5.10;;;9.30;72.30;;;;;;5002292;28;20038;-66
2021/12/17 07:36:11;;;;;;;15.02;6.22;;;9.30;72.20;;;;;;5003000;28;20133;-65
2021/12/17 07:38:50;;;;;;;12.43;5.18;;;9.40;72.30;;;;;;5006818;28;20100;-66
2021/12/17 07:41:17;;;;;;;9.30;5.32;;;9.50;72.40;;;;;;5000588;28;20035;-66
2021/12/17 07:43:54;;;;;;;11.43;6.07;;;9.60;71.80;;;;;;4977033;28;20026;-65
2021/12/17 07:46:21;;;;;;;11.38;5.50;;;9.70;72.20;;;;;;4994509;28;20034;-65
2021/12/17 07:48:47;;;;;;;10.23;5.70;;;9.80;71.70;;;;;;4994362;28;20018;-65
2021/12/17 07:51:15;;;;;;;18.10;6.05;;;9.80;71.80;;;;;;4994415;28;20030;-65
2021/12/17 07:53:41;;;;;;;20.77;6.45;;;9.80;71.60;;;;;;4973383;28;20039;-65
2021/12/17 07:56:10;;;;;;;16.13;7.22;;;9.80;71.70;;;;;;4975080;28;20027;-66
2021/12/17 07:58:36;;;;;;;16.75;6.90;;;9.70;71.60;;;;;;4975104;28;20027;-66
2021/12/17 08:01:03;;;;;;;17.58;6.85;;;9.70;71.90;;;;;;4981084;28;20037;-65
2021/12/17 08:03:29;;;;;;;13.43;6.00;;;9.70;71.80;;;;;;4980158;28;20027;-66
2021/12/17 08:05:55;;;;;;;16.92;7.30;;;9.70;71.80;;;;;;4974708;28;20051;-66
2021/12/17 08:08:21;;;;;;;21.23;6.97;;;9.80;72.70;;;;;;4974672;28;20022;-65
2021/12/17 08:10:48;;;;;;;15.75;6.72;;;9.80;72.10;;;;;;4974240;28;20457;-67
2021/12/17 08:13:22;;;;;;;13.52;7.10;;;9.90;72.10;;;;;;4974329;28;20373;-68
2021/12/17 08:16:05;;;;;;;;;;;9.90;72.00;;;;;;4974952;28;20034;-67
2021/12/17 08:24:43;;;;;;;13.00;6.97;;;10.00;70.70;;;;;;4974732;28;19929;-68
2021/12/17 08:31:53;;;;;;;16.83;8.25;;;10.30;70.70;;;;;;4974111;28;20414;-67
2021/12/17 08:34:19;;;;;;;25.23;8.93;;;10.40;70.40;;;;;;4973059;28;20023;-67
2021/12/17 08:36:45;;;;;;;19.80;7.53;;;10.40;70.30;;;;;;4974123;28;20106;-73
2021/12/17 08:39:11;;;;;;;14.95;7.88;;;10.50;69.70;;;;;;4973917;28;20766;-71
2021/12/17 08:41:39;;;;;;;16.13;7.88;;;10.60;69.40;;;;;;4974166;28;20033;-71
2021/12/17 08:44:05;;;;;;;15.73;8.00;;;10.70;69.60;;;;;;4973982;28;20035;-70
2021/12/17 08:46:31;;;;;;;21.50;7.50;;;10.70;69.30;;;;;;4974279;28;20043;-71
2021/12/17 08:48:56;;;;;;;13.80;7.60;;;10.70;69.10;;;;;;4974131;28;20038;-68
2021/12/17 08:51:24;;;;;;;17.58;7.22;;;10.70;69.20;;;;;;4974076;28;20436;-72
2021/12/17 08:53:50;;;;;;;17.23;7.35;;;10.70;68.80;;;;;;4979118;28;20065;-72
2021/12/17 08:56:19;;;;;;;12.07;6.78;;;10.60;68.70;;;;;;4993294;28;20085;-73
2021/12/17 08:58:49;;;;;;;14.60;7.20;;;10.60;68.90;;;;;;4976105;28;20486;-68
2021/12/17 09:01:15;;;;;;;11.77;7.47;;;10.60;68.80;;;;;;4993433;28;20026;-66
2021/12/17 09:03:41;;;;;;;18.10;7.72;;;10.70;69.10;;;;;;4993612;28;20034;-75
2021/12/17 09:06:06;;;;;;;12.80;6.88;;;10.70;68.70;;;;;;4993364;28;20454;-71
2021/12/17 09:08:32;;;;;;;16.70;6.57;;;10.80;68.90;;;;;;4993392;28;20504;-75
2021/12/17 09:10:58;;;;;;;11.45;5.88;;;10.80;68.50;;;;;;4993390;28;20110;-73
2021/12/17 09:13:25;;;;;;;11.43;5.95;;;10.90;68.50;;;;;;4993297;28;20030;-71
2021/12/17 09:16:07;;;;;;;12.55;6.82;;;10.90;68.70;;;;;;4993287;28;20072;-69
2021/12/17 09:18:34;;;;;;;15.27;7.38;;;11.00;68.20;;;;;;4993356;28;20033;-66
2021/12/17 09:21:00;;;;;;;15.07;6.13;;;11.10;68.20;;;;;;4993056;28;20061;-68
2021/12/17 09:23:26;;;;;;;13.00;6.28;;;11.20;68.10;;;;;;4992985;28;20066;-73
2021/12/17 09:25:52;;;;;;;11.20;6.53;;;11.20;67.80;;;;;;4993094;28;20065;-73
2021/12/17 09:28:17;;;;;;;16.63;6.03;;;11.30;68.00;;;;;;4975794;28;20496;-72
2021/12/17 09:30:43;;;;;;;13.35;6.65;;;11.40;67.50;;;;;;4993092;28;20364;-70
2021/12/17 09:33:12;;;;;;;10.40;5.88;;;11.50;67.80;;;;;;4975503;28;20037;-66
2021/12/17 09:35:38;;;;;;;10.98;6.75;;;11.60;67.70;;;;;;4992942;28;20037;-71
2021/12/17 09:38:03;;;;;;;10.57;6.45;;;11.70;67.20;;;;;;4992911;28;20023;-68
2021/12/17 09:40:29;;;;;;;16.63;6.93;;;11.70;66.60;;;;;;4993033;28;20035;-66
2021/12/17 09:42:55;;;;;;;12.10;7.05;;;11.80;66.00;;;;;;4993072;28;20462;-67
2021/12/17 09:45:21;;;;;;;16.52;7.15;;;11.90;66.50;;;;;;4975394;28;20030;-67
2021/12/17 09:47:48;;;;;;;11.57;6.65;;;11.90;66.10;;;;;;4993045;28;20026;-66
2021/12/17 09:50:16;;;;;;;10.27;6.35;;;12.00;66.20;;;;;;4992974;28;20030;-67
2021/12/17 09:52:42;;;;;;;13.40;5.53;;;12.10;65.60;;;;;;4992773;28;20030;-66
2021/12/17 09:55:09;;;;;;;16.85;5.13;;;12.20;65.10;;;;;;4972052;28;20051;-68
2021/12/17 09:57:36;;;;;;;10.45;4.63;;;12.20;65.00;;;;;;4973220;28;20031;-68
2021/12/17 10:00:23;;;;;;;23.33;4.97;;;12.30;65.10;;;;;;4973328;28;20491;-67
2021/12/17 10:02:50;;;;;;;15.07;5.28;;;12.40;64.00;;;;;;4973092;28;20026;-69
2021/12/17 10:05:32;;;;;;;11.82;5.60;;;12.50;63.50;;;;;;4973220;28;20111;-67
2021/12/17 10:08:13;;;;;;;11.15;5.18;;;12.50;63.90;;;;;;4971917;28;20199;-68
2021/12/17 10:10:44;;;;;;;7.95;4.50;;;12.60;63.30;;;;;;4973228;28;20022;-66
2021/12/17 10:13:16;;;;;;;10.40;4.38;;;12.70;62.10;;;;;;4973240;28;20039;-69
2021/12/17 10:15:46;;;;;;;11.50;4.50;;;12.70;62.50;;;;;;4973302;28;20046;-68
2021/12/17 10:18:13;;;;;;;13.10;4.65;;;12.80;61.80;;;;;;4973072;28;20050;-68
2021/12/17 10:20:59;;;;;;;9.98;4.70;;;12.90;61.50;;;;;;4973253;28;20030;-66
2021/12/17 10:23:28;;;;;;;10.63;5.07;;;12.90;62.00;;;;;;4973755;28;20473;-66
2021/12/17 10:25:53;;;;;;;12.35;5.72;;;13.00;60.60;;;;;;4976625;28;20106;-66
2021/12/17 10:28:20;;;;;;;15.48;4.28;;;13.10;60.00;;;;;;4976447;28;20175;-68
2021/12/17 10:30:48;;;;;;;7.65;4.18;;;13.20;59.70;;;;;;4976353;28;20108;-67
2021/12/17 10:33:18;;;;;;;8.80;3.83;;;13.10;59.50;;;;;;4976544;28;20181;-68
2021/12/17 10:35:47;;;;;;;7.35;3.95;;;13.00;59.70;;;;;;4976473;28;20483;-68
2021/12/17 10:38:16;;;;;;;7.75;4.13;;;13.00;59.30;;;;;;4976384;28;20018;-66
2021/12/17 10:41:02;;;;;;;8.07;3.97;;;13.00;59.50;;;;;;4976214;28;20038;-68
2021/12/17 10:43:36;;;;;;;20.42;4.53;;;13.10;60.00;;;;;;4976011;28;20058;-68
2021/12/17 10:46:32;;;;;;;10.23;3.80;;;13.10;59.90;;;;;;4975910;28;20437;-66
2021/12/17 10:51:45;;;;;;;9.85;3.78;;;13.30;58.10;;;;;;4975967;28;19912;-66
2021/12/17 10:54:15;;;;;;;8.73;3.80;;;13.30;59.00;;;;;;4983925;28;20084;-66
2021/12/17 10:56:43;;;;;;;11.52;4.85;;;13.40;59.10;;;;;;4995268;28;20026;-66
2021/12/17 10:59:10;;;;;;;10.40;4.90;;;13.50;58.80;;;;;;4995106;28;20079;-66
2021/12/17 11:01:45;;;;;;;8.77;4.30;;;13.60;58.50;;;;;;4995321;28;20037;-67
2021/12/17 11:04:16;;;;;;;7.88;3.95;;;13.60;58.00;;;;;;4995401;28;20479;-67
2021/12/17 11:07:00;;;;;;;11.82;4.10;;;13.70;57.80;;;;;;4977689;28;20595;-69
2021/12/17 11:09:57;;;;;;;7.32;4.22;;;13.80;57.90;;;;;;4994956;28;20026;-68
2021/12/17 11:12:30;;;;;;;8.88;4.22;;;13.80;57.60;;;;;;4995000;28;20057;-66
2021/12/17 11:15:12;;;;;;;8.90;4.30;;;13.90;57.80;;;;;;4995246;28;20029;-66
2021/12/17 11:17:40;;;;;;;12.07;4.90;;;14.00;57.80;;;;;;4994676;28;20053;-69
2021/12/17 11:20:18;;;;;;;8.90;4.20;;;14.10;57.90;;;;;;4994935;28;20053;-67
2021/12/17 11:22:45;;;;;;;11.52;4.28;;;14.20;57.70;;;;;;4994572;28;20133;-69
2021/12/17 11:25:12;;;;;;;8.98;4.20;;;14.20;57.20;;;;;;4994784;28;20077;-68
2021/12/17 11:27:39;;;;;;;9.57;4.78;;;14.30;57.50;;;;;;4994533;28;20069;-66
2021/12/17 11:30:12;;;;;;;12.25;4.72;;;14.40;57.50;;;;;;4994873;28;20022;-69
2021/12/17 11:32:38;;;;;;;11.02;4.95;;;14.40;57.20;;;;;;4994850;28;20105;-67
2021/12/17 11:35:05;;;;;;;12.13;4.47;;;14.50;57.40;;;;;;4993651;28;20089;-67
2021/12/17 11:37:31;;;;;;;8.43;4.03;;;14.50;57.00;;;;;;4994495;28;20113;-67
2021/12/17 11:40:05;;;;;;;7.70;4.30;;;14.60;57.00;;;;;;4994688;28;20087;-68
2021/12/17 11:42:59;;;;;;;10.45;4.65;;;14.60;56.50;;;;;;4994565;28;20460;-68
2021/12/17 11:45:27;;;;;;;8.25;4.22;;;14.70;55.70;;;;;;4994579;28;20033;-65
2021/12/17 11:48:10;;;;;;;11.63;4.57;;;14.80;56.10;;;;;;4977289;28;20098;-67
2021/12/17 11:50:36;;;;;;;7.97;4.15;;;14.80;55.90;;;;;;4994491;28;20080;-68
2021/12/17 11:53:20;;;;;;;9.32;4.35;;;14.90;55.70;;;;;;4994688;28;20040;-66
2021/12/17 11:55:47;;;;;;;;;;;14.90;55.70;;;;;;4994940;28;20038;-68
2021/12/17 11:58:15;;;;;;;11.57;4.60;;;15.00;54.60;;;;;;4994613;28;19906;-67
2021/12/17 12:00:41;;;;;;;13.10;5.43;;;15.10;55.30;;;;;;4994710;28;20026;-67
2021/12/17 12:03:16;;;;;;;12.48;5.43;;;15.10;54.80;;;;;;4994445;28;20034;-67
2021/12/17 12:05:44;;;;;;;10.25;5.47;;;15.10;54.90;;;;;;4976778;28;20037;-67
2021/12/17 12:08:25;;;;;;;16.27;8.60;;;15.10;54.90;;;;;;4976990;28;20054;-68
2021/12/17 12:11:14;;;;;;;14.55;6.88;;;15.10;55.20;;;;;;4994228;28;20488;-68
2021/12/17 12:13:44;;;;;;;22.77;11.25;;;15.20;55.00;;;;;;4994111;28;20026;-69
2021/12/17 12:16:19;;;;;;;27.40;10.77;;;15.30;55.10;;;;;;4993902;28;20034;-67
2021/12/17 12:18:54;;;;;;;44.55;19.40;;;15.30;54.90;;;;;;4993620;28;20440;-68
2021/12/17 12:21:25;;;;;;;16.27;8.27;;;15.40;55.10;;;;;;4994026;28;20081;-67
2021/12/17 12:24:18;;;;;;;14.07;5.47;;;15.40;54.70;;;;;;4993877;28;20065;-67
2021/12/17 12:26:51;;;;;;;11.05;4.45;;;15.40;54.60;;;;;;4989881;28;20090;-69
2021/12/17 12:29:24;;;;;;;9.93;4.28;;;15.50;54.30;;;;;;4993554;28;20478;-65
2021/12/17 12:32:05;;;;;;;8.80;3.47;;;15.50;54.00;;;;;;4993597;28;20037;-67
2021/12/17 12:34:35;;;;;;;10.98;5.75;;;15.60;53.90;;;;;;4993639;28;20030;-67
2021/12/17 12:37:09;;;;;;;16.10;7.18;;;15.60;54.60;;;;;;4993550;28;20132;-70
2021/12/17 12:39:37;;;;;;;18.23;7.88;;;15.70;54.40;;;;;;4993440;28;20026;-68
2021/12/17 12:42:14;;;;;;;19.58;8.65;;;15.70;54.40;;;;;;4993419;28;20030;-66
2021/12/17 12:44:47;;;;;;;9.25;4.70;;;15.70;54.90;;;;;;4993459;28;20030;-67
2021/12/17 12:47:22;;;;;;;8.18;3.72;;;15.70;55.10;;;;;;4992993;28;20074;-67
2021/12/17 12:50:04;;;;;;;8.40;3.85;;;15.70;55.50;;;;;;4993393;28;20018;-67
2021/12/17 12:52:32;;;;;;;10.75;5.45;;;15.70;56.20;;;;;;4993417;28;20030;-67
2021/12/17 12:55:22;;;;;;;10.95;6.93;;;15.70;56.20;;;;;;4993329;28;20065;-66
2021/12/17 12:58:01;;;;;;;10.20;4.57;;;15.80;56.60;;;;;;4975687;28;20042;-67
2021/12/17 13:00:54;;;;;;;10.90;4.97;;;15.80;56.70;;;;;;4993434;28;20034;-66
2021/12/17 13:03:25;;;;;;;8.82;5.32;;;15.80;56.90;;;;;;4993151;28;20030;-67
2021/12/17 13:05:52;;;;;;;10.02;5.20;;;15.90;57.20;;;;;;4993275;28;20060;-68
2021/12/17 13:08:21;;;;;;;10.00;5.47;;;15.90;57.00;;;;;;4993233;28;20035;-69
2021/12/17 13:10:55;;;;;;;9.13;5.78;;;16.00;57.40;;;;;;4993172;28;20019;-68
2021/12/17 13:16:08;;;;;;;9.77;5.13;;;16.00;57.60;;;;;;4993061;28;20065;-67
2021/12/17 13:23:51;;;;;;;10.75;5.38;;;16.10;57.80;;;;;;4993145;28;20452;-68
2021/12/17 13:26:19;;;;;;;9.32;5.70;;;16.10;57.70;;;;;;4993173;28;20045;-70
2021/12/17 13:29:15;;;;;;;9.73;5.60;;;16.10;57.50;;;;;;4993078;28;20049;-68
2021/12/17 13:31:52;;;;;;;7.85;4.75;;;16.10;57.20;;;;;;4992986;28;20031;-66
2021/12/17 13:34:18;;;;;;;9.20;5.65;;;16.10;57.30;;;;;;4992743;28;20038;-67
2021/12/17 13:36:50;;;;;;;9.85;7.20;;;16.10;57.30;;;;;;4992898;28;20027;-69
2021/12/17 13:39:16;;;;;;;9.82;5.22;;;16.10;57.20;;;;;;4992901;28;20542;-67
2021/12/17 13:41:44;;;;;;;9.73;5.55;;;16.10;57.20;;;;;;4993001;28;20150;-67
2021/12/17 13:44:27;;;;;;;9.60;5.43;;;16.20;57.20;;;;;;4992771;28;20026;-68
2021/12/17 13:47:05;;;;;;;10.10;6.63;;;16.20;57.10;;;;;;4992603;28;20439;-67
2021/12/17 13:49:31;;;;;;;10.25;5.95;;;16.20;57.20;;;;;;4992557;28;20461;-68
2021/12/17 13:51:56;;;;;;;15.98;5.82;;;16.20;57.30;;;;;;4992550;28;20034;-68
2021/12/17 13:54:22;;;;;;;10.25;5.68;;;16.20;57.10;;;;;;4992516;28;20050;-67
2021/12/17 13:56:59;;;;;;;11.68;6.60;;;16.30;57.20;;;;;;4992730;28;20065;-68
2021/12/17 13:59:33;;;;;;;12.48;6.82;;;16.60;56.70;;;;;;4995206;28;20435;-67
2021/12/17 14:02:11;;;;;;;10.93;5.70;;;16.60;56.50;;;;;;4996612;28;20026;-67
2021/12/17 14:04:37;;;;;;;8.57;5.03;;;16.60;56.30;;;;;;4996781;28;20050;-67
2021/12/17 14:07:07;;;;;;;10.77;5.75;;;16.40;56.90;;;;;;4996614;28;20124;-69
2021/12/17 14:09:33;;;;;;;12.70;5.95;;;16.30;57.50;;;;;;4996525;28;20379;-67
2021/12/17 14:12:27;;;;;;;38.58;9.30;;;16.20;57.80;;;;;;4996300;28;20036;-67
2021/12/17 14:15:06;;;;;;;27.48;7.43;;;16.10;58.10;;;;;;4996751;28;20070;-67
2021/12/17 14:17:43;;;;;;;12.10;6.10;;;16.10;58.60;;;;;;4996150;28;20105;-68
2021/12/17 14:20:18;;;;;;;12.25;5.95;;;16.00;58.30;;;;;;4996225;28;20021;-68
2021/12/17 14:22:48;;;;;;;11.75;6.32;;;15.90;59.00;;;;;;4996211;28;20029;-68
2021/12/17 14:25:24;;;;;;;18.80;6.00;;;15.90;59.00;;;;;;4996219;28;20088;-69
2021/12/17 14:27:51;;;;;;;11.82;6.00;;;15.90;59.10;;;;;;4996013;28;20034;-68
2021/12/17 14:30:28;;;;;;;11.80;6.28;;;15.90;59.50;;;;;;4996243;28;20019;-67
2021/12/17 14:32:54;;;;;;;12.27;6.13;;;15.80;59.50;;;;;;4996328;28;20034;-67
2021/12/17 14:35:39;;;;;;;13.38;7.03;;;15.80;59.60;;;;;;4996240;28;20026;-67
2021/12/17 14:38:05;;;;;;;12.70;6.50;;;15.80;59.50;;;;;;4995885;28;20029;-67
2021/12/17 14:43:44;;;;;;;11.73;6.10;;;15.70;59.40;;;;;;4996047;28;20121;-67
2021/12/17 14:46:26;;;;;;;9.98;5.13;;;15.70;59.10;;;;;;4995755;28;20022;-67
2021/12/17 15:02:57;;;;;;;13.38;5.90;;;15.40;59.50;;;;;;4996034;28;20388;-67
2021/12/17 15:05:26;;;;;;;9.50;5.00;;;15.40;59.90;;;;;;4995621;28;20108;-68
2021/12/17 15:07:56;;;;;;;11.55;5.55;;;15.30;60.00;;;;;;4978372;28;20117;-68
2021/12/17 15:10:24;;;;;;;12.40;5.95;;;15.30;60.20;;;;;;4995291;28;20161;-71
2021/12/17 15:12:55;;;;;;;11.75;5.60;;;15.20;60.40;;;;;;4995277;28;20041;-68
2021/12/17 15:15:23;;;;;;;13.02;5.93;;;15.20;60.80;;;;;;4995429;28;20475;-66
2021/12/17 15:17:52;;;;;;;15.95;6.07;;;15.10;60.90;;;;;;4995121;28;20027;-66
2021/12/17 15:20:27;;;;;;;13.63;7.55;;;15.10;61.00;;;;;;4995314;28;20033;-67
2021/12/17 15:22:54;;;;;;;15.68;7.68;;;15.00;61.30;;;;;;4995219;28;20042;-70
2021/12/17 15:25:20;;;;;;;12.48;6.53;;;14.90;61.40;;;;;;4977454;28;20408;-69
2021/12/17 15:27:47;;;;;;;16.73;5.57;;;14.80;61.70;;;;;;4994947;28;20058;-70
2021/12/17 15:30:18;;;;;;;10.25;4.95;;;14.80;61.80;;;;;;4995129;28;20026;-67
2021/12/17 15:32:45;;;;;;;9.68;5.55;;;14.70;62.00;;;;;;4994946;28;20027;-67
2021/12/17 15:35:12;;;;;;;8.45;4.60;;;14.70;61.80;;;;;;4977473;28;20023;-67
2021/12/17 15:37:40;;;;;;;13.82;5.65;;;14.70;61.90;;;;;;4994824;28;20553;-67
2021/12/17 15:40:07;;;;;;;15.77;6.05;;;14.60;61.80;;;;;;4994896;28;20028;-68
2021/12/17 15:42:33;;;;;;;12.43;5.80;;;14.50;62.10;;;;;;4994486;28;20126;-68
2021/12/17 15:44:59;;;;;;;10.95;5.97;;;14.50;62.40;;;;;;4994998;28;20058;-72
2021/12/17 15:47:24;;;;;;;12.93;7.15;;;14.40;62.70;;;;;;4994765;28;20038;-67
2021/12/17 15:49:50;;;;;;;14.32;7.18;;;14.30;62.90;;;;;;4994707;28;20100;-67
2021/12/17 15:52:16;;;;;;;11.73;7.10;;;14.30;63.20;;;;;;4994625;28;20023;-68
2021/12/17 15:54:42;;;;;;;12.77;7.32;;;14.20;63.40;;;;;;4994605;28;20129;-69
2021/12/17 15:57:08;;;;;;;11.90;6.13;;;14.20;63.50;;;;;;4994642;28;20022;-67
2021/12/17 15:59:34;;;;;;;9.55;5.82;;;14.10;63.20;;;;;;4994535;28;20028;-68